Time;durP1;ratioP1;P1;durP2;ratioP2;P2;SDS_P1;SDS_P2;PMS_P1;PMS_P2;Temp;Humidity;BMP_temperature;BMP_pressure;BME280_temperature;BME280_humidity;BME280_pressure;Samples;Min_cycle;Max_cycle;Signal;HPM_P1;HPM_P2
2021/10/06 00:02:10;;;;;;;;;;;;;;;9.80;100.00;100324.56;5067781;28;19916;-72
2021/10/06 00:04:36;;;;;;;59.33;26.67;;;;;;;9.80;100.00;100324.56;5068077;28;19912;-72
2021/10/06 00:07:01;;;;;;;65.20;27.87;;;;;;;9.83;100.00;100324.22;5050584;28;20048;-72
2021/10/06 00:09:27;;;;;;;60.10;25.53;;;;;;;9.87;100.00;100338.88;5067965;28;20306;-72
2021/10/06 00:11:52;;;;;;;59.03;26.23;;;;;;;9.92;100.00;100329.38;5050792;28;20036;-72
2021/10/06 00:14:18;;;;;;;56.07;26.97;;;;;;;9.95;100.00;100322.91;5033829;28;20036;-72
2021/10/06 00:16:43;;;;;;;54.72;25.90;;;;;;;9.95;100.00;100328.22;5068226;28;20040;-72
2021/10/06 00:19:09;;;;;;;62.00;28.87;;;;;;;9.93;100.00;100319.56;5049912;28;20040;-72
2021/10/06 00:21:34;;;;;;;57.83;28.73;;;;;;;9.93;100.00;100324.91;5067711;28;20036;-72
2021/10/06 00:24:00;;;;;;;55.47;27.73;;;;;;;10.00;100.00;100328.56;5067193;28;20048;-72
2021/10/06 00:26:26;;;;;;;58.85;25.92;;;;;;;10.00;100.00;100328.56;5067903;28;20028;-72
2021/10/06 00:28:51;;;;;;;52.88;26.13;;;;;;;10.09;100.00;100335.53;5067237;28;20170;-72
2021/10/06 00:31:17;;;;;;;49.50;25.93;;;;;;;10.08;100.00;100333.84;5067205;28;20458;-72
2021/10/06 00:33:42;;;;;;;55.27;25.63;;;;;;;10.05;100.00;100339.53;5067254;28;20452;-72
2021/10/06 00:36:09;;;;;;;60.33;27.60;;;;;;;10.12;100.00;100334.38;5066784;28;20036;-72
2021/10/06 00:38:35;;;;;;;;;;;;;;;10.13;100.00;100341.34;5066742;28;20024;-72
2021/10/06 00:41:00;;;;;;;;;;;;;;;10.19;100.00;100339.84;5033262;28;19916;-72
2021/10/06 00:43:25;;;;;;;47.80;23.83;;;;;;;10.18;100.00;100338.19;5066520;28;19917;-72
2021/10/06 00:45:51;;;;;;;56.47;25.60;;;;;;;10.12;100.00;100337.03;5066750;28;20267;-72
2021/10/06 00:48:16;;;;;;;57.73;26.90;;;;;;;10.06;100.00;100335.84;5049510;28;20041;-72
2021/10/06 00:50:43;;;;;;;59.35;25.92;;;;;;;10.08;100.00;100344.53;5066699;28;20028;-72
2021/10/06 00:53:08;;;;;;;;;;;;;;;10.09;100.00;100351.53;5050086;28;20110;-72
2021/10/06 00:55:35;;;;;;;;;;;;;;;10.11;100.00;100351.34;5066227;28;20218;-72
2021/10/06 00:58:00;;;;;;;52.97;26.40;;;;;;;10.12;100.00;100345.84;5066234;28;19952;-72
2021/10/06 01:00:26;;;;;;;61.30;26.67;;;;;;;10.12;100.00;100353.03;5066724;28;20080;-72
2021/10/06 01:02:51;;;;;;;52.47;25.73;;;;;;;10.15;100.00;100355.34;5049236;28;20460;-72
2021/10/06 01:05:17;;;;;;;58.00;26.65;;;;;;;10.15;100.00;100358.03;5048997;28;20045;-72
2021/10/06 01:07:43;;;;;;;58.77;26.43;;;;;;;10.15;100.00;100366.03;5066905;28;20024;-72
2021/10/06 01:10:10;;;;;;;49.92;24.15;;;;;;;10.15;100.00;100379.38;5049013;28;20457;-72
2021/10/06 01:12:38;;;;;;;51.58;25.10;;;;;;;10.23;100.00;100375.84;5049409;28;20075;-72
2021/10/06 01:15:07;;;;;;;48.97;24.13;;;;;;;10.24;100.00;100374.84;5031731;28;20047;-72
2021/10/06 01:17:32;;;;;;;46.53;22.80;;;;;;;10.31;100.00;100375.88;5065219;28;20032;-72
2021/10/06 01:19:57;;;;;;;47.77;26.47;;;;;;;10.31;100.00;100376.69;5047329;28;20090;-72
2021/10/06 01:22:23;;;;;;;44.77;21.83;;;;;;;10.28;100.00;100371.72;5047542;28;20129;-72
2021/10/06 01:24:49;;;;;;;44.70;24.05;;;;;;;10.37;100.00;100380.50;5064201;28;20048;-72
2021/10/06 01:27:14;;;;;;;48.70;23.53;;;;;;;10.31;100.00;100373.22;5011628;28;1030054;-72
2021/10/06 01:29:40;;;;;;;47.33;24.55;;;;;;;10.35;100.00;100377.22;5065225;28;20055;-72
2021/10/06 01:32:13;;;;;;;48.85;24.65;;;;;;;10.31;100.00;100387.38;5068126;28;20040;-72
2021/10/06 01:34:40;;;;;;;48.60;24.88;;;;;;;10.28;100.00;100389.53;5053480;28;20040;-72
2021/10/06 01:37:05;;;;;;;;;;;;;;;10.30;100.00;100396.41;5070394;28;21097;-72
2021/10/06 01:39:31;;;;;;;;;;;;;;;10.30;100.00;100393.72;5054086;28;20077;-72
2021/10/06 01:41:56;;;;;;;50.00;23.50;;;;;;;10.30;100.00;100390.19;5070206;28;19908;-72
2021/10/06 01:44:22;;;;;;;49.47;24.40;;;;;;;10.28;100.00;100386.88;5070986;28;20071;-72
2021/10/06 01:46:48;;;;;;;46.37;23.10;;;;;;;10.35;100.00;100395.88;5053287;28;20158;-72
2021/10/06 01:49:14;;;;;;;51.28;24.45;;;;;;;10.32;100.00;100390.88;5053218;28;20043;-72
2021/10/06 01:51:40;;;;;;;46.92;25.17;;;;;;;10.32;100.00;100388.19;5070506;28;20032;-72
2021/10/06 01:54:05;;;;;;;48.25;24.10;;;;;;;10.28;100.00;100387.72;5069260;28;20040;-72
2021/10/06 01:56:32;;;;;;;44.30;23.77;;;;;;;10.39;100.00;100397.19;5068106;28;20024;-72
2021/10/06 01:58:58;;;;;;;44.67;22.17;;;;;;;10.43;100.00;100400.38;5069043;28;20032;-72
2021/10/06 02:01:24;;;;;;;43.55;21.77;;;;;;;10.39;100.00;100389.19;5067999;28;20040;-72
2021/10/06 02:03:49;;;;;;;37.40;20.73;;;;;;;10.45;100.00;100393.03;5069354;28;20048;-72
2021/10/06 02:06:15;;;;;;;40.80;20.67;;;;;;;10.42;100.00;100391.53;5068782;28;20050;-72
2021/10/06 02:08:40;;;;;;;41.40;22.43;;;;;;;10.42;100.00;100399.53;5052447;28;20033;-72
2021/10/06 02:11:06;;;;;;;34.93;20.47;;;;;;;10.51;100.00;100398.53;5070234;28;20190;-72
2021/10/06 02:13:31;;;;;;;37.90;20.90;;;;;;;10.42;100.00;100394.22;5052862;28;20122;-72
2021/10/06 02:15:57;;;;;;;36.80;20.03;;;;;;;10.47;100.00;100404.38;5069209;28;20286;-72
2021/10/06 02:18:23;;;;;;;37.25;20.48;;;;;;;10.45;100.00;100388.53;5052836;28;20032;-72
2021/10/06 02:20:48;;;;;;;44.93;22.20;;;;;;;10.47;100.00;100402.53;5052721;28;20040;-72
2021/10/06 02:23:14;;;;;;;36.07;20.40;;;;;;;10.51;100.00;100393.19;5070336;28;20037;-72
2021/10/06 02:25:39;;;;;;;38.23;21.03;;;;;;;10.55;100.00;100397.16;5069685;28;20071;-72
2021/10/06 02:28:05;;;;;;;36.77;19.93;;;;;;;10.58;100.00;100398.66;5051319;28;20036;-72
2021/10/06 02:30:30;;;;;;;38.95;20.77;;;;;;;10.60;100.00;100410.00;5069023;28;20032;-74
2021/10/06 02:32:56;;;;;;;35.33;20.17;;;;;;;10.59;100.00;100402.19;5051416;28;20052;-72
2021/10/06 02:35:22;;;;;;;41.22;21.17;;;;;;;10.57;100.00;100402.34;5050629;28;20040;-72
2021/10/06 02:37:47;;;;;;;35.47;19.70;;;;;;;10.56;100.00;100409.50;5051346;28;20024;-72
2021/10/06 02:40:16;;;;;;;37.67;20.38;;;;;;;10.58;100.00;100412.00;5051443;28;20812;-72
2021/10/06 02:42:42;;;;;;;34.30;21.45;;;;;;;10.57;100.00;100408.50;5051109;28;20032;-72
2021/10/06 02:45:10;;;;;;;39.50;20.10;;;;;;;10.63;100.00;100401.66;5051987;28;20036;-72
2021/10/06 02:47:36;;;;;;;37.90;20.33;;;;;;;10.59;100.00;100405.66;5068610;28;20047;-72
2021/10/06 02:50:02;;;;;;;;;;;;;;;10.61;100.00;100406.34;5052576;28;20043;-72
2021/10/06 02:52:28;;;;;;;36.15;19.95;;;;;;;10.58;100.00;100412.00;5052420;28;19912;-73
2021/10/06 02:54:54;;;;;;;37.23;19.97;;;;;;;10.55;100.00;100421.19;5069498;28;20101;-72
2021/10/06 02:57:19;;;;;;;40.90;20.58;;;;;;;10.53;100.00;100412.50;5052010;28;20137;-72
2021/10/06 02:59:45;;;;;;;38.07;20.20;;;;;;;10.57;100.00;100421.03;5051310;28;20106;-72
2021/10/06 03:02:10;;;;;;;37.80;21.07;;;;;;;10.61;100.00;100421.53;5069023;28;20123;-73
2021/10/06 03:04:35;;;;;;;31.97;19.67;;;;;;;10.65;100.00;100430.84;5069143;28;20044;-72
2021/10/06 03:07:01;;;;;;;34.27;19.67;;;;;;;10.64;100.00;100430.00;5051645;28;20366;-72
2021/10/06 03:09:26;;;;;;;33.67;20.30;;;;;;;10.62;100.00;100429.34;5051371;28;20033;-72
2021/10/06 03:11:52;;;;;;;33.63;19.53;;;;;;;10.63;100.00;100432.84;5051829;28;20295;-72
2021/10/06 03:14:17;;;;;;;33.00;19.37;;;;;;;10.63;100.00;100432.84;5051534;28;20039;-72
2021/10/06 03:16:43;;;;;;;32.75;18.90;;;;;;;10.62;100.00;100433.84;5069102;28;20115;-72
2021/10/06 03:19:08;;;;;;;31.80;19.10;;;;;;;10.62;100.00;100448.03;5034619;28;20036;-72
2021/10/06 03:21:34;;;;;;;38.08;19.58;;;;;;;10.63;100.00;100440.84;5069085;28;20036;-72
2021/10/06 03:24:00;;;;;;;30.47;19.13;;;;;;;10.62;100.00;100441.88;5051589;28;20044;-72
2021/10/06 03:26:25;;;;;;;29.83;18.13;;;;;;;10.60;100.00;100444.69;5050996;28;20278;-73
2021/10/06 03:28:51;;;;;;;34.55;18.35;;;;;;;10.53;100.00;100444.53;5051509;28;20465;-72
2021/10/06 03:31:16;;;;;;;29.97;18.63;;;;;;;10.50;100.00;100442.22;5068670;28;20063;-72
2021/10/06 03:33:41;;;;;;;32.77;18.60;;;;;;;10.56;100.00;100457.56;5051460;28;20032;-72
2021/10/06 03:36:07;;;;;;;26.38;17.60;;;;;;;10.50;100.00;100460.06;5068240;28;20051;-72
2021/10/06 03:38:33;;;;;;;41.35;18.38;;;;;;;10.51;100.00;100462.59;5051245;28;20044;-72
2021/10/06 03:40:59;;;;;;;35.17;19.70;;;;;;;10.53;100.00;100460.56;5050952;28;20430;-72
2021/10/06 03:43:25;;;;;;;32.10;18.00;;;;;;;10.52;100.00;100460.75;5051403;28;20028;-72
2021/10/06 03:45:50;;;;;;;31.55;19.23;;;;;;;10.53;100.00;100465.91;5050575;28;20279;-72
2021/10/06 03:48:16;;;;;;;26.80;16.60;;;;;;;10.58;100.00;100470.72;5051001;28;20473;-72
2021/10/06 03:50:43;;;;;;;31.13;17.33;;;;;;;10.54;100.00;100470.25;5068112;28;20032;-72
2021/10/06 03:53:09;;;;;;;30.17;17.50;;;;;;;10.46;100.00;100470.25;5067599;28;20051;-72
2021/10/06 03:55:35;;;;;;;31.48;18.40;;;;;;;10.34;100.00;100458.25;5067917;28;20090;-72
2021/10/06 03:58:01;;;;;;;28.67;17.55;;;;;;;10.32;100.00;100473.59;5068497;28;20025;-72
2021/10/06 04:00:26;;;;;;;28.60;16.88;;;;;;;10.36;100.00;100477.59;5033936;28;20028;-72
2021/10/06 04:02:52;;;;;;;27.98;16.10;;;;;;;10.27;100.00;100484.72;5050199;28;20051;-72
2021/10/06 04:05:18;;;;;;;31.23;17.00;;;;;;;10.21;100.00;100477.41;5067146;28;20044;-72
2021/10/06 04:07:43;;;;;;;26.20;17.02;;;;;;;10.13;100.00;100483.56;5067376;28;20608;-72
2021/10/06 04:10:09;;;;;;;28.80;16.30;;;;;;;10.11;100.00;100493.59;5068197;28;20041;-72
2021/10/06 04:12:35;;;;;;;28.08;16.33;;;;;;;10.03;100.00;100485.56;5068188;28;20109;-72
2021/10/06 04:15:00;;;;;;;30.10;16.98;;;;;;;10.01;100.00;100498.22;5050494;28;20091;-72
2021/10/06 04:17:26;;;;;;;27.47;16.77;;;;;;;9.94;100.00;100495.38;5067905;28;20040;-73
2021/10/06 04:19:51;;;;;;;27.50;15.63;;;;;;;9.94;100.00;100502.56;5068008;28;20362;-72
2021/10/06 04:22:17;;;;;;;29.90;18.42;;;;;;;9.97;100.00;100507.53;5034012;28;20032;-72
2021/10/06 04:24:43;;;;;;;29.00;16.60;;;;;;;9.93;100.00;100511.56;5050301;28;20029;-72
2021/10/06 04:27:09;;;;;;;;;;;;;;;9.96;100.00;100516.56;5067357;28;20032;-72
2021/10/06 04:29:34;;;;;;;;;;;;;;;10.01;100.00;100508.91;5068350;28;20353;-72
2021/10/06 04:31:59;;;;;;;33.50;16.27;;;;;;;9.93;100.00;100511.56;5034109;28;19974;-72
2021/10/06 04:34:25;;;;;;;41.72;18.50;;;;;;;9.94;100.00;100518.56;5067868;28;20041;-72
2021/10/06 04:36:51;;;;;;;33.77;18.00;;;;;;;9.96;100.00;100524.56;5033637;28;20050;-72
2021/10/06 04:39:16;;;;;;;31.40;16.67;;;;;;;9.92;100.00;100526.69;5033670;28;20270;-72
2021/10/06 04:41:42;;;;;;;39.47;20.10;;;;;;;9.83;100.00;100529.53;5050360;28;20043;-72
2021/10/06 04:44:08;;;;;;;27.77;18.45;;;;;;;9.83;100.00;100542.84;5033456;28;20090;-72
2021/10/06 04:46:33;;;;;;;29.37;18.67;;;;;;;9.86;100.00;100539.88;5067638;28;20040;-72
2021/10/06 04:49:01;;;;;;;30.30;17.17;;;;;;;9.90;100.00;100554.53;5067689;28;20032;-72
2021/10/06 04:51:27;;;;;;;38.22;19.05;;;;;;;9.94;100.00;100556.72;5068041;28;20622;-72
2021/10/06 04:53:52;;;;;;;33.53;18.33;;;;;;;9.88;100.00;100548.53;5050244;28;20021;-72
2021/10/06 04:56:18;;;;;;;34.20;18.35;;;;;;;9.82;100.00;100541.19;5066652;28;20123;-72
2021/10/06 04:58:43;;;;;;;35.47;17.80;;;;;;;9.79;100.00;100537.03;5050159;28;20025;-72
2021/10/06 05:01:08;;;;;;;28.50;18.53;;;;;;;9.76;100.00;100550.66;5067046;28;20083;-72
2021/10/06 05:03:34;;;;;;;32.50;19.38;;;;;;;9.62;100.00;100537.94;5050054;28;20032;-72
2021/10/06 05:06:00;;;;;;;36.35;19.73;;;;;;;9.61;100.00;100558.44;5050234;28;20442;-73
2021/10/06 05:08:25;;;;;;;30.37;18.70;;;;;;;9.55;100.00;100555.59;5053907;28;20033;-73
2021/10/06 05:10:51;;;;;;;34.63;18.15;;;;;;;9.64;100.00;100559.97;5071427;28;20044;-72
2021/10/06 05:13:16;;;;;;;34.33;18.90;;;;;;;9.58;100.00;100561.44;5053690;28;20459;-72
2021/10/06 05:15:42;;;;;;;27.67;17.33;;;;;;;9.57;100.00;100564.25;5071290;28;20039;-72
2021/10/06 05:18:07;;;;;;;34.90;18.90;;;;;;;9.54;100.00;100576.06;5037051;28;20032;-72
2021/10/06 05:20:33;;;;;;;33.80;18.70;;;;;;;9.50;100.00;100580.06;5070261;28;20093;-72
2021/10/06 05:22:58;;;;;;;36.60;20.38;;;;;;;9.45;100.00;100580.53;5053777;28;20040;-72
2021/10/06 05:25:25;;;;;;;30.23;18.53;;;;;;;9.43;100.00;100579.03;5053538;28;20072;-72
2021/10/06 05:27:51;;;;;;;33.70;19.70;;;;;;;9.39;100.00;100593.66;5070646;28;20032;-72
2021/10/06 05:30:17;;;;;;;37.25;20.27;;;;;;;9.42;100.00;100601.34;5071001;28;20036;-72
2021/10/06 05:32:43;;;;;;;34.63;21.75;;;;;;;9.42;100.00;100606.69;5071203;28;20111;-73
2021/10/06 05:35:09;;;;;;;33.00;19.02;;;;;;;9.46;100.00;100613.38;5053153;28;20650;-72
2021/10/06 05:37:35;;;;;;;37.28;19.80;;;;;;;9.44;100.00;100616.19;5070202;28;20044;-72
2021/10/06 05:40:01;;;;;;;34.10;19.50;;;;;;;9.45;100.00;100622.34;5053226;28;20347;-72
2021/10/06 05:42:26;;;;;;;34.13;19.38;;;;;;;9.48;100.00;100625.53;5070083;28;20450;-72
2021/10/06 05:44:52;;;;;;;36.63;19.27;;;;;;;9.46;100.00;100619.53;5052909;28;20044;-71
2021/10/06 05:47:17;;;;;;;38.17;18.83;;;;;;;9.45;100.00;100622.34;5070825;28;20028;-72
2021/10/06 05:49:42;;;;;;;34.97;19.43;;;;;;;9.56;100.00;100638.06;5070409;28;20036;-72
2021/10/06 05:52:08;;;;;;;37.60;17.80;;;;;;;9.55;100.00;100628.38;5053408;28;20709;-73
2021/10/06 05:54:34;;;;;;;36.85;19.67;;;;;;;9.58;100.00;100629.91;5069411;28;20032;-73
2021/10/06 05:57:00;;;;;;;34.35;18.80;;;;;;;9.50;100.00;100623.56;5036708;28;20121;-72
2021/10/06 05:59:26;;;;;;;33.72;19.27;;;;;;;9.57;100.00;100639.72;5069529;28;20101;-72
2021/10/06 06:01:51;;;;;;;28.10;17.80;;;;;;;9.54;100.00;100640.03;5070360;28;20032;-72
2021/10/06 06:04:17;;;;;;;29.27;17.10;;;;;;;9.56;100.00;100640.72;5070292;28;20043;-72
2021/10/06 06:06:45;;;;;;;30.08;17.08;;;;;;;9.60;100.00;100642.09;5052920;28;20047;-72
2021/10/06 06:09:12;;;;;;;29.80;16.50;;;;;;;9.62;100.00;100653.44;5069066;28;20107;-72
2021/10/06 06:11:38;;;;;;;31.15;16.33;;;;;;;9.57;100.00;100649.56;5049625;28;20082;-72
2021/10/06 06:14:05;;;;;;;31.00;15.82;;;;;;;9.62;100.00;100652.56;5067131;28;20456;-72
2021/10/06 06:16:31;;;;;;;30.40;16.63;;;;;;;9.68;100.00;100654.63;5069275;28;20059;-72
2021/10/06 06:18:57;;;;;;;31.08;17.17;;;;;;;9.79;100.00;100659.66;5049170;28;20128;-72
2021/10/06 06:21:23;;;;;;;24.83;14.95;;;;;;;9.83;100.00;100660.16;5052660;28;20107;-72
2021/10/06 06:23:48;;;;;;;32.10;17.23;;;;;;;9.86;100.00;100652.69;5070225;28;20040;-72
2021/10/06 06:26:14;;;;;;;29.00;16.05;;;;;;;9.95;100.00;100666.91;5052209;28;20037;-72
2021/10/06 06:28:40;;;;;;;29.20;16.20;;;;;;;9.88;100.00;100663.19;5069071;28;20401;-72
2021/10/06 06:31:10;;;;;;;26.10;16.33;;;;;;;9.94;100.00;100662.56;5052332;28;20036;-72
2021/10/06 06:33:36;;;;;;;31.20;17.02;;;;;;;9.99;100.00;100676.25;5052714;28;20109;-72
2021/10/06 06:36:04;;;;;;;26.38;15.60;;;;;;;9.98;100.00;100674.59;5069488;28;20414;-72
2021/10/06 06:38:29;;;;;;;27.05;15.68;;;;;;;10.26;100.00;100682.38;5069156;28;20075;-72
2021/10/06 06:40:55;;;;;;;29.53;15.07;;;;;;;10.56;100.00;100684.47;5069661;28;20063;-72
2021/10/06 06:43:21;;;;;;;21.50;13.13;;;;;;;10.64;100.00;100680.97;5052494;28;20475;-73
2021/10/06 06:45:47;;;;;;;27.35;15.15;;;;;;;10.60;100.00;100694.81;5051810;28;20040;-72
2021/10/06 06:48:12;;;;;;;25.67;14.13;;;;;;;10.82;100.00;100690.69;5052251;28;20086;-72
2021/10/06 06:50:38;;;;;;;21.13;13.17;;;;;;;10.69;100.00;100683.97;5051799;28;20039;-72
2021/10/06 06:53:03;;;;;;;24.42;14.07;;;;;;;10.94;100.00;100697.38;5052140;28;20044;-72
2021/10/06 06:55:29;;;;;;;20.63;12.70;;;;;;;10.84;100.00;100689.53;5051880;28;20051;-72
2021/10/06 06:57:55;;;;;;;17.13;10.98;;;;;;;11.04;100.00;100691.88;5051816;28;20039;-72
2021/10/06 07:00:21;;;;;;;17.33;11.02;;;;;;;11.08;100.00;100704.72;5052023;28;20033;-73
2021/10/06 07:02:46;;;;;;;21.45;11.70;;;;;;;10.79;100.00;100699.84;5068221;28;20020;-73
2021/10/06 07:05:11;;;;;;;19.63;12.63;;;;;;;11.01;100.00;100706.41;5050706;28;20437;-73
2021/10/06 07:07:37;;;;;;;19.60;11.10;;;;;;;11.07;99.65;100704.88;5049973;28;20024;-73
2021/10/06 07:10:04;;;;;;;17.90;11.70;;;;;;;11.06;98.73;100716.59;5050237;28;20462;-72
2021/10/06 07:12:29;;;;;;;17.20;10.57;;;;;;;11.28;98.13;100707.88;5050024;28;20044;-73
2021/10/06 07:14:55;;;;;;;20.58;11.57;;;;;;;11.20;98.25;100727.44;5066001;28;20469;-72
2021/10/06 07:17:20;;;;;;;18.87;11.00;;;;;;;11.48;97.91;100734.28;5050120;28;20032;-72
2021/10/06 07:19:47;;;;;;;17.70;10.87;;;;;;;11.75;96.22;100743.75;5068050;28;20106;-72
2021/10/06 07:22:13;;;;;;;18.05;10.73;;;;;;;11.80;96.00;100752.13;5068184;28;20075;-72
2021/10/06 07:24:39;;;;;;;16.88;10.18;;;;;;;11.83;94.23;100744.56;5051289;28;20047;-73
2021/10/06 07:27:06;;;;;;;16.98;11.23;;;;;;;11.13;96.40;100745.13;5034693;28;20071;-73
2021/10/06 07:29:32;;;;;;;19.73;11.25;;;;;;;11.31;97.50;100768.22;5050691;28;20048;-72
2021/10/06 07:31:58;;;;;;;20.63;10.82;;;;;;;11.14;97.17;100768.19;5069010;28;20032;-73
2021/10/06 07:34:24;;;;;;;17.33;11.20;;;;;;;11.22;97.37;100769.19;5067912;28;20071;-73
2021/10/06 07:36:50;;;;;;;19.10;9.32;;;;;;;11.48;95.99;100769.88;5051195;28;20481;-73
2021/10/06 07:39:15;;;;;;;13.82;10.75;;;;;;;11.70;95.28;100776.34;5034422;28;20021;-73
2021/10/06 07:41:41;;;;;;;19.17;9.90;;;;;;;12.02;93.88;100777.34;5051440;28;20071;-73
2021/10/06 07:44:06;;;;;;;17.37;10.13;;;;;;;12.15;92.99;100783.00;5068417;28;20029;-73
2021/10/06 07:46:32;;;;;;;14.87;9.37;;;;;;;12.58;92.00;100790.69;5051148;28;20085;-73
2021/10/06 07:48:58;;;;;;;14.45;9.00;;;;;;;12.56;89.62;100782.81;5068414;28;20290;-73
2021/10/06 07:51:23;;;;;;;12.47;8.07;;;;;;;12.86;89.72;100799.91;5068918;28;20081;-73
2021/10/06 07:53:49;;;;;;;16.13;8.50;;;;;;;13.30;87.14;100787.78;5051063;28;20067;-73
2021/10/06 07:56:15;;;;;;;12.77;9.35;;;;;;;12.67;86.75;100782.44;5067400;28;20131;-73
2021/10/06 07:58:41;;;;;;;15.80;9.40;;;;;;;12.60;89.41;100807.44;5050947;28;20032;-73
2021/10/06 08:01:08;;;;;;;14.13;7.88;;;;;;;13.29;87.72;100807.56;5068131;28;20085;-73
2021/10/06 08:03:34;;;;;;;13.80;8.05;;;;;;;12.59;87.70;100795.03;5051040;28;20028;-73
2021/10/06 08:06:00;;;;;;;13.30;8.48;;;;;;;12.34;89.39;100823.72;5050647;28;20362;-73
2021/10/06 08:08:28;;;;;;;24.50;11.43;;;;;;;12.40;89.07;100807.00;5068317;28;20039;-73
2021/10/06 08:10:55;;;;;;;10.77;7.63;;;;;;;13.35;85.51;100817.56;5067313;28;20036;-73
2021/10/06 08:13:22;;;;;;;9.68;7.28;;;;;;;12.77;87.09;100817.03;5068412;28;20024;-73
2021/10/06 08:15:48;;;;;;;12.10;7.72;;;;;;;13.28;87.44;100830.84;5068258;28;20115;-73
2021/10/06 08:18:16;;;;;;;15.65;8.02;;;;;;;13.48;85.02;100814.28;5068331;28;20390;-73
2021/10/06 08:20:43;;;;;;;16.35;7.07;;;;;;;13.77;84.15;100818.06;5067283;28;20100;-73
2021/10/06 08:23:09;;;;;;;9.32;6.32;;;;;;;14.21;82.89;100826.19;5067418;28;20037;-73
2021/10/06 08:25:35;;;;;;;;;;;;;;;14.94;79.77;100821.78;5050514;28;20032;-73
2021/10/06 08:28:00;;;;;;;;;;;;;;;15.02;80.02;100825.38;5067496;28;19916;-73
2021/10/06 08:30:27;;;;;;;12.18;6.10;;;;;;;14.70;77.24;100811.34;5050805;28;19995;-73
2021/10/06 08:32:53;;;;;;;;;;;;;;;15.42;77.20;100821.25;5068860;28;20033;-73
2021/10/06 08:35:18;;;;;;;12.52;5.38;;;;;;;15.30;76.52;100820.09;5033459;28;20101;-73
2021/10/06 08:37:44;;;;;;;14.98;6.40;;;;;;;14.99;75.24;100805.09;5050675;28;20055;-74
2021/10/06 08:40:10;;;;;;;8.48;5.80;;;;;;;15.03;76.18;100827.91;5050215;28;20031;-74
2021/10/06 08:42:36;;;;;;;11.43;5.80;;;;;;;14.66;76.99;100827.03;5070504;28;20516;-74
2021/10/06 08:45:06;;;;;;;12.18;5.82;;;;;;;14.88;75.92;100819.84;5054514;28;20098;-74
2021/10/06 08:47:35;;;;;;;10.57;5.60;;;;;;;14.26;78.50;100847.13;5038382;28;20142;-73
2021/10/06 08:50:00;;;;;;;10.23;5.95;;;;;;;14.84;76.96;100840.06;5071836;28;20473;-74
2021/10/06 08:52:26;;;;;;;8.98;5.20;;;;;;;14.85;77.24;100849.81;5054700;28;20125;-74
2021/10/06 08:54:51;;;;;;;7.63;5.47;;;;;;;14.90;76.71;100855.44;5070891;28;20029;-74
2021/10/06 08:57:18;;;;;;;10.43;5.20;;;;;;;15.19;75.00;100838.41;5054566;28;20039;-74
2021/10/06 08:59:44;;;;;;;10.70;5.28;;;;;;;15.68;74.51;100852.13;5054355;28;20281;-75
2021/10/06 09:02:15;;;;;;;16.75;6.57;;;;;;;15.89;73.06;100827.06;5071621;28;20048;-74
2021/10/06 09:04:41;;;;;;;28.08;5.35;;;;;;;15.66;73.69;100854.16;5071742;28;20036;-74
2021/10/06 09:07:07;;;;;;;;;;;;;;;14.27;77.27;100876.47;5072322;28;20081;-74
2021/10/06 09:09:34;;;;;;;;;;;;;;;15.41;74.55;100873.41;5054341;28;19920;-74
2021/10/06 09:12:02;;;;;;;11.05;5.28;;;;;;;14.61;76.09;100863.53;5054227;28;20369;-74
2021/10/06 09:14:30;;;;;;;12.48;4.93;;;;;;;14.60;76.38;100875.31;5053783;28;20029;-74
2021/10/06 09:17:17;;;;;;;9.90;4.93;;;;;;;14.44;76.46;100881.66;5070768;28;20032;-74
2021/10/06 09:19:43;;;;;;;13.30;4.85;;;;;;;13.81;79.55;100902.53;5071393;28;20480;-74
2021/10/06 09:22:35;;;;;;;11.20;5.80;;;;;;;13.18;80.63;100899.94;5070838;28;20689;-74
2021/10/06 09:25:08;;;;;;;12.40;5.80;;;;;;;13.29;81.33;100914.81;5066450;28;20051;-74
2021/10/06 09:27:36;;;;;;;9.45;5.80;;;;;;;13.38;81.34;100916.44;5053003;28;20033;-74
2021/10/06 09:30:06;;;;;;;15.70;6.55;;;;;;;13.41;81.89;100926.78;5069650;28;20033;-74
2021/10/06 09:32:37;;;;;;;13.50;4.60;;;;;;;13.66;80.73;100918.59;5069037;28;20055;-74
2021/10/06 09:35:08;;;;;;;11.80;4.35;;;;;;;14.67;77.43;100920.06;5069003;28;20032;-73
2021/10/06 09:37:36;;;;;;;8.43;3.83;;;;;;;13.66;79.33;100921.28;5052183;28;20029;-74
2021/10/06 09:40:02;;;;;;;6.05;4.00;;;;;;;14.30;78.86;100939.72;5052103;28;20021;-74
2021/10/06 09:42:28;;;;;;;9.80;3.72;;;;;;;14.73;75.40;100910.44;5052290;28;20100;-74
2021/10/06 09:44:56;;;;;;;5.43;3.20;;;;;;;15.22;74.92;100895.50;5071514;28;20878;-80
2021/10/06 09:47:23;;;;;;;5.07;3.47;;;;;;;15.90;73.87;100914.91;5054824;28;20032;-81
2021/10/06 09:49:57;;;;;;;7.32;3.50;;;;;;;16.44;69.12;100892.72;5070755;28;20101;-80
2021/10/06 09:52:24;;;;;;;6.30;3.72;;;;;;;16.31;70.59;100906.94;5054424;28;20032;-81
2021/10/06 09:55:02;;;;;;;9.70;3.10;;;;;;;16.50;70.48;100888.41;5072290;28;20116;-81
2021/10/06 09:57:29;;;;;;;7.13;3.20;;;;;;;15.98;70.25;100906.66;5054104;28;20063;-81
2021/10/06 09:59:57;;;;;;;7.30;3.20;;;;;;;15.01;74.75;100937.47;5071545;28;20039;-80
2021/10/06 10:02:25;;;;;;;6.95;3.05;;;;;;;15.26;73.48;100935.28;5071229;28;20025;-81
2021/10/06 10:04:53;;;;;;;8.82;3.42;;;;;;;15.47;73.14;100945.25;5070437;28;20075;-79
2021/10/06 10:07:20;;;;;;;7.07;3.20;;;;;;;15.91;70.41;100935.41;5071358;28;20044;-79
2021/10/06 10:09:47;;;;;;;5.13;2.42;;;;;;;17.30;67.84;100933.63;5070343;28;20589;-79
2021/10/06 10:12:13;;;;;;;8.48;2.38;;;;;;;16.70;66.48;100916.31;5053618;28;20040;-80
2021/10/06 10:14:40;;;;;;;3.67;2.75;;;;;;;15.55;69.20;100917.44;5053767;28;20113;-81
2021/10/06 10:17:05;;;;;;;8.30;2.40;;;;;;;15.05;71.26;100941.44;5053803;28;20420;-80
2021/10/06 10:19:31;;;;;;;5.90;2.33;;;;;;;15.79;71.44;100956.63;5053336;28;20024;-80
2021/10/06 10:22:01;;;;;;;5.97;2.90;;;;;;;16.32;69.74;100951.72;5053696;28;20464;-80
2021/10/06 10:24:26;;;;;;;8.70;2.97;;;;;;;16.72;66.01;100925.03;5036752;28;20461;-79
2021/10/06 10:27:04;;;;;;;7.50;2.72;;;;;;;16.27;67.47;100942.53;5036404;28;20064;-79
2021/10/06 10:29:51;;;;;;;13.27;3.13;;;;;;;14.77;72.02;100968.16;5069606;28;20048;-80
2021/10/06 10:32:20;;;;;;;6.97;2.60;;;;;;;15.57;70.29;100969.19;5052854;28;20051;-80
2021/10/06 10:35:07;;;;;;;5.40;2.10;;;;;;;15.94;69.10;100967.31;5052495;28;20475;-79
2021/10/06 10:37:45;;;;;;;6.35;2.22;;;;;;;15.70;68.01;100946.97;5069120;28;20040;-79
2021/10/06 10:40:36;;;;;;;6.25;2.85;;;;;;;15.74;67.84;100954.50;5052774;28;20451;-79
2021/10/06 10:43:53;;;;;;;7.43;2.75;;;;;;;16.85;66.39;100960.16;5053412;28;20089;-80
2021/10/06 10:46:18;;;;;;;5.50;3.05;;;;;;;17.59;64.93;100964.03;5027493;28;20052;-80
2021/10/06 10:49:01;;;;;;;5.30;2.97;;;;;;;17.25;64.25;100944.19;5052762;28;20370;-81
2021/10/06 10:51:47;;;;;;;5.47;2.22;;;;;;;16.75;66.85;100970.47;5071138;28;20404;-81
2021/10/06 10:54:29;;;;;;;5.28;2.55;;;;;;;16.63;66.25;100964.78;5052868;28;20040;-80
2021/10/06 10:56:55;;;;;;;6.95;2.55;;;;;;;17.25;65.45;100968.47;5070394;28;20511;-81
2021/10/06 10:59:23;;;;;;;5.15;3.20;;;;;;;16.40;66.91;100974.97;5052590;28;20020;-81
2021/10/06 11:01:52;;;;;;;8.25;2.40;;;;;;;16.76;65.95;100977.50;5069866;28;20036;-80
2021/10/06 11:04:23;;;;;;;10.15;2.75;;;;;;;17.54;64.04;100966.50;5068337;28;20020;-81
2021/10/06 11:06:55;;;;;;;5.47;2.15;;;;;;;18.84;61.64;100972.44;5052999;28;20036;-81
2021/10/06 11:09:29;;;;;;;7.65;2.42;;;;;;;17.50;62.63;100963.38;5069922;28;20037;-81
2021/10/06 11:12:07;;;;;;;5.15;2.38;;;;;;;17.52;63.27;100973.97;5071136;28;20040;-83
2021/10/06 11:14:35;;;;;;;5.35;1.88;;;;;;;17.34;63.05;100971.00;5053173;28;20060;-81